Time;durP1;ratioP1;P1;durP2;ratioP2;P2;SDS_P1;SDS_P2;PMS_P1;PMS_P2;Temp;Humidity;BMP_temperature;BMP_pressure;BME280_temperature;BME280_humidity;BME280_pressure;Samples;Min_cycle;Max_cycle;Signal;HPM_P1;HPM_P2
2024/01/20 00:01:38;;;;;;;16.10;6.00;;;3.40;1.00;;;;;;5074410;28;20162;-79
2024/01/20 00:04:04;;;;;;;12.93;4.87;;;3.40;1.00;;;;;;5073441;28;20224;-79
2024/01/20 00:06:29;;;;;;;15.57;5.70;;;3.40;1.00;;;;;;5074037;28;20192;-74
2024/01/20 00:08:55;;;;;;;14.60;4.80;;;3.30;1.00;;;;;;5074277;28;20503;-74
2024/01/20 00:11:21;;;;;;;11.90;4.20;;;3.40;1.00;;;;;;5076820;28;20193;-79
2024/01/20 00:13:47;;;;;;;16.33;5.73;;;3.40;1.00;;;;;;5075783;28;20801;-74
2024/01/20 00:16:13;;;;;;;17.60;5.43;;;3.50;1.00;;;;;;5056153;28;20185;-75
2024/01/20 00:18:38;;;;;;;15.30;6.47;;;3.40;1.00;;;;;;5079969;28;20201;-79
2024/01/20 00:21:04;;;;;;;18.47;6.63;;;3.30;1.00;;;;;;5093984;28;20280;-79
2024/01/20 00:23:30;;;;;;;14.50;5.40;;;3.30;1.00;;;;;;5075065;28;20177;-74
2024/01/20 00:25:55;;;;;;;10.80;6.40;;;3.30;1.00;;;;;;5076047;28;20201;-74
2024/01/20 00:28:21;;;;;;;17.07;5.77;;;3.30;1.00;;;;;;5093963;28;20218;-74
2024/01/20 00:30:47;;;;;;;19.07;5.87;;;3.30;1.00;;;;;;5087681;28;20171;-74
2024/01/20 00:33:13;;;;;;;13.00;5.00;;;3.30;1.00;;;;;;5055009;28;20223;-79
2024/01/20 00:35:42;;;;;;;10.60;4.57;;;3.30;1.00;;;;;;5055532;28;20428;-74
2024/01/20 00:38:08;;;;;;;12.63;4.93;;;3.30;1.00;;;;;;5073524;28;20213;-78
2024/01/20 00:40:34;;;;;;;10.37;4.20;;;3.40;1.00;;;;;;5055478;28;20401;-74
2024/01/20 00:43:00;;;;;;;5.77;4.90;;;3.40;1.00;;;;;;5072374;28;20466;-78
2024/01/20 00:45:25;;;;;;;13.70;4.03;;;3.40;1.00;;;;;;5073441;28;20265;-77
2024/01/20 00:47:51;;;;;;;15.97;5.17;;;3.40;1.00;;;;;;5073439;28;20642;-74
2024/01/20 00:50:17;;;;;;;9.87;4.80;;;3.30;1.00;;;;;;5073339;28;20169;-78
2024/01/20 00:52:42;;;;;;;9.77;4.60;;;3.30;1.00;;;;;;5073053;28;20182;-80
2024/01/20 00:55:09;;;;;;;16.67;6.23;;;3.30;1.00;;;;;;5072459;28;20263;-73
2024/01/20 00:57:35;;;;;;;7.03;5.33;;;3.20;1.00;;;;;;5072730;28;20658;-75
2024/01/20 01:00:01;;;;;;;5.10;4.37;;;3.20;1.00;;;;;;5073198;28;20408;-78
2024/01/20 01:02:26;;;;;;;8.10;5.13;;;3.20;1.00;;;;;;5073169;28;20177;-77
2024/01/20 01:04:52;;;;;;;13.37;6.03;;;3.20;1.00;;;;;;5071907;28;20206;-78
2024/01/20 01:07:18;;;;;;;20.80;5.60;;;3.20;1.00;;;;;;5079065;28;20248;-80
2024/01/20 01:09:44;;;;;;;9.00;4.80;;;3.20;1.00;;;;;;5093399;28;20169;-74
2024/01/20 01:12:09;;;;;;;17.10;6.67;;;3.20;1.00;;;;;;5093325;28;20361;-73
2024/01/20 01:14:35;;;;;;;14.00;4.73;;;3.20;1.00;;;;;;5075588;28;20240;-78
2024/01/20 01:17:01;;;;;;;11.20;5.73;;;3.20;1.00;;;;;;5072977;28;20903;-74
2024/01/20 01:19:27;;;;;;;12.17;4.73;;;3.20;1.00;;;;;;5073182;28;20159;-78
2024/01/20 01:21:52;;;;;;;14.17;5.60;;;3.30;1.00;;;;;;5073203;28;20518;-74
2024/01/20 01:24:18;;;;;;;11.70;4.60;;;3.30;1.00;;;;;;5072285;28;20182;-80
2024/01/20 01:26:43;;;;;;;8.27;4.67;;;3.20;1.00;;;;;;5073214;28;20169;-74
2024/01/20 01:29:09;;;;;;;23.93;5.90;;;3.30;1.00;;;;;;5072131;28;20372;-78
2024/01/20 01:31:35;;;;;;;22.00;5.53;;;3.20;1.00;;;;;;5076594;28;20178;-79
2024/01/20 01:34:01;;;;;;;4.77;3.67;;;3.30;1.00;;;;;;5054148;28;20285;-79
2024/01/20 01:36:26;;;;;;;13.27;5.20;;;3.20;1.00;;;;;;5073080;28;20166;-75
2024/01/20 01:38:52;;;;;;;14.17;6.43;;;3.20;1.00;;;;;;5073006;28;20452;-79
2024/01/20 01:41:19;;;;;;;15.70;7.30;;;3.30;1.00;;;;;;5072987;28;20171;-80
2024/01/20 01:43:44;;;;;;;17.50;5.20;;;3.20;5.40;;;;;;5072061;28;20165;-74
2024/01/20 01:46:10;;;;;;;5.20;4.60;;;3.20;11.70;;;;;;5057720;28;20435;-78
2024/01/20 01:48:36;;;;;;;15.33;5.97;;;3.20;27.20;;;;;;5072916;28;20178;-74
2024/01/20 01:51:04;;;;;;;9.73;5.10;;;3.20;27.20;;;;;;5072927;28;20450;-74
2024/01/20 01:53:32;;;;;;;19.30;5.90;;;3.20;31.50;;;;;;5073715;28;20444;-77
2024/01/20 01:55:59;;;;;;;26.30;6.20;;;3.10;44.30;;;;;;5079721;28;20961;-79
2024/01/20 01:58:26;;;;;;;6.40;4.03;;;3.10;51.20;;;;;;5072804;28;20781;-79
2024/01/20 02:00:52;;;;;;;7.60;5.60;;;3.20;56.70;;;;;;5072781;28;20424;-74
2024/01/20 02:03:18;;;;;;;21.10;5.87;;;3.10;50.80;;;;;;5074421;28;20979;-79
2024/01/20 02:05:43;;;;;;;11.93;4.93;;;3.10;51.80;;;;;;5077358;28;20484;-79
2024/01/20 02:08:10;;;;;;;15.63;5.37;;;3.10;55.50;;;;;;5073057;28;20206;-74
2024/01/20 02:10:38;;;;;;;15.07;4.57;;;3.20;58.00;;;;;;5079251;28;20185;-76
2024/01/20 02:13:04;;;;;;;13.43;6.27;;;3.20;56.70;;;;;;5089861;28;20420;-77
2024/01/20 02:15:31;;;;;;;15.33;4.77;;;3.10;54.50;;;;;;5076224;28;20417;-75
2024/01/20 02:17:57;;;;;;;12.03;5.27;;;3.20;51.20;;;;;;5076290;28;20478;-79
2024/01/20 02:20:24;;;;;;;9.57;4.73;;;3.20;44.30;;;;;;5076287;28;20428;-74
2024/01/20 02:22:50;;;;;;;12.20;4.70;;;3.20;33.40;;;;;;5075388;28;20249;-78
2024/01/20 02:25:16;;;;;;;9.77;4.90;;;3.20;27.20;;;;;;5076125;28;20901;-74
2024/01/20 02:27:42;;;;;;;12.40;6.57;;;3.20;27.20;;;;;;5076114;28;20466;-80
2024/01/20 02:30:08;;;;;;;18.03;4.97;;;3.20;27.20;;;;;;5080094;28;20220;-76
2024/01/20 02:32:34;;;;;;;12.87;5.20;;;3.10;18.10;;;;;;5078930;28;20182;-79
2024/01/20 02:34:59;;;;;;;6.50;3.33;;;3.20;9.20;;;;;;5075143;28;20625;-74
2024/01/20 02:37:26;;;;;;;13.83;4.73;;;3.10;5.60;;;;;;5058238;28;20674;-77
2024/01/20 02:39:52;;;;;;;9.77;4.50;;;3.10;5.00;;;;;;5075929;28;20413;-74
2024/01/20 02:42:18;;;;;;;24.43;6.27;;;3.20;1.00;;;;;;5057961;28;20232;-78
2024/01/20 02:44:43;;;;;;;21.67;5.80;;;3.20;1.00;;;;;;5074901;28;20432;-74
2024/01/20 02:47:09;;;;;;;4.30;3.73;;;3.20;1.00;;;;;;5078022;28;20178;-79
2024/01/20 02:49:35;;;;;;;8.40;4.83;;;3.20;1.00;;;;;;5074150;28;20201;-78
2024/01/20 02:52:01;;;;;;;7.90;5.40;;;3.20;1.00;;;;;;5075813;28;20615;-74
2024/01/20 02:54:26;;;;;;;5.13;3.17;;;3.20;1.00;;;;;;5076673;28;20186;-80
2024/01/20 02:56:52;;;;;;;22.00;5.10;;;3.20;1.00;;;;;;5077564;28;20260;-79
2024/01/20 02:59:18;;;;;;;18.90;3.90;;;3.20;1.00;;;;;;5095258;28;20300;-75
2024/01/20 03:01:43;;;;;;;9.47;3.17;;;3.10;1.00;;;;;;5077401;28;20205;-79
2024/01/20 03:04:09;;;;;;;7.80;4.90;;;3.20;1.00;;;;;;5094198;28;20192;-75
2024/01/20 03:06:35;;;;;;;7.27;4.20;;;3.20;1.00;;;;;;5075321;28;20227;-75
2024/01/20 03:09:00;;;;;;;15.33;5.17;;;3.20;1.00;;;;;;5074283;28;20272;-80
2024/01/20 03:11:26;;;;;;;17.73;4.60;;;3.20;1.00;;;;;;5075272;28;20170;-79
2024/01/20 03:13:52;;;;;;;8.60;4.00;;;3.20;1.00;;;;;;5074010;28;20181;-77
2024/01/20 03:16:17;;;;;;;14.77;4.83;;;3.20;1.00;;;;;;5075059;28;20211;-78
2024/01/20 03:18:43;;;;;;;20.80;4.90;;;3.10;1.00;;;;;;5074913;28;20320;-75
2024/01/20 03:21:09;;;;;;;14.03;4.10;;;3.20;1.00;;;;;;5074698;28;20177;-76
2024/01/20 03:23:34;;;;;;;20.13;3.60;;;3.20;1.00;;;;;;5056413;28;20205;-78
2024/01/20 03:26:08;;;;;;;8.50;5.43;;;3.10;1.00;;;;;;5074389;28;20206;-76
2024/01/20 03:28:33;;;;;;;15.83;5.43;;;3.10;1.00;;;;;;5074875;28;20198;-78
2024/01/20 03:30:59;;;;;;;8.97;5.27;;;3.20;1.00;;;;;;5073919;28;20916;-75
2024/01/20 03:33:25;;;;;;;9.70;4.40;;;3.10;1.00;;;;;;5073992;28;20174;-78
2024/01/20 03:35:50;;;;;;;11.10;4.70;;;3.10;1.00;;;;;;5074738;28;20194;-76
2024/01/20 03:38:17;;;;;;;18.23;6.07;;;3.10;1.00;;;;;;5056806;28;20688;-79
2024/01/20 03:40:43;;;;;;;11.17;4.80;;;3.10;1.00;;;;;;5073344;28;20194;-75
2024/01/20 03:43:10;;;;;;;10.63;5.27;;;3.20;1.00;;;;;;5073751;28;21263;-75
2024/01/20 03:45:35;;;;;;;12.80;4.87;;;3.10;1.00;;;;;;5074548;28;20431;-75
2024/01/20 03:48:01;;;;;;;28.70;6.70;;;3.20;1.00;;;;;;5085720;28;20900;-75
2024/01/20 03:50:27;;;;;;;14.00;5.23;;;3.10;1.00;;;;;;5094889;28;20166;-79
2024/01/20 03:52:52;;;;;;;11.70;5.07;;;3.10;1.00;;;;;;5090529;28;20182;-77
2024/01/20 03:55:18;;;;;;;7.83;4.20;;;3.10;1.00;;;;;;5077249;28;20646;-80
2024/01/20 03:57:44;;;;;;;12.60;5.63;;;3.00;1.00;;;;;;5074408;28;20189;-77
2024/01/20 04:00:10;;;;;;;20.93;4.80;;;3.00;1.00;;;;;;5073996;28;20534;-75
2024/01/20 04:02:35;;;;;;;12.27;5.10;;;3.00;1.00;;;;;;5074410;28;20531;-79
2024/01/20 04:05:01;;;;;;;13.17;5.63;;;3.00;1.00;;;;;;5073318;28;20441;-74
2024/01/20 04:07:27;;;;;;;9.23;4.70;;;3.00;1.00;;;;;;5074376;28;20634;-78
2024/01/20 04:09:52;;;;;;;14.50;4.90;;;3.00;1.00;;;;;;5074713;28;20177;-74
2024/01/20 04:12:18;;;;;;;16.07;5.30;;;3.00;1.00;;;;;;5082534;28;20205;-74
2024/01/20 04:14:44;;;;;;;7.73;4.47;;;2.90;1.00;;;;;;5093268;28;20657;-78
2024/01/20 04:17:10;;;;;;;11.63;5.30;;;3.00;1.00;;;;;;5062669;28;20177;-79
2024/01/20 04:19:36;;;;;;;14.30;5.20;;;2.90;1.00;;;;;;5056145;28;20177;-79
2024/01/20 04:22:01;;;;;;;16.23;5.07;;;2.90;1.00;;;;;;5055957;28;20769;-76
2024/01/20 04:24:27;;;;;;;21.93;5.97;;;2.90;1.00;;;;;;5072808;28;20236;-78
2024/01/20 04:26:53;;;;;;;8.73;4.40;;;2.90;1.00;;;;;;5056026;28;20273;-79
2024/01/20 04:29:18;;;;;;;6.40;4.53;;;2.90;1.00;;;;;;5087075;28;20256;-78
2024/01/20 04:31:44;;;;;;;14.27;5.37;;;2.90;1.00;;;;;;5075078;28;20196;-78
2024/01/20 04:34:10;;;;;;;15.43;5.10;;;2.90;1.00;;;;;;5074808;28;20232;-79
2024/01/20 04:36:35;;;;;;;7.40;5.57;;;2.90;1.00;;;;;;5093780;28;20162;-74
2024/01/20 04:39:01;;;;;;;14.13;6.30;;;3.00;1.00;;;;;;5093768;28;20226;-79
2024/01/20 04:41:27;;;;;;;24.27;6.67;;;3.00;1.00;;;;;;5075843;28;20253;-78
2024/01/20 04:43:52;;;;;;;20.97;5.97;;;3.00;1.00;;;;;;5074591;28;20576;-79
2024/01/20 04:46:18;;;;;;;7.83;4.73;;;2.90;1.00;;;;;;5093758;28;20244;-79
2024/01/20 04:48:44;;;;;;;15.53;5.80;;;3.00;1.00;;;;;;5093598;28;20222;-74
2024/01/20 04:51:09;;;;;;;12.10;5.83;;;3.00;1.00;;;;;;5093705;28;20789;-79
2024/01/20 04:53:35;;;;;;;13.47;6.40;;;3.00;1.00;;;;;;5092688;28;20177;-78
2024/01/20 04:56:04;;;;;;;10.33;5.47;;;2.90;1.00;;;;;;5093456;28;20193;-74
2024/01/20 04:58:31;;;;;;;14.47;6.33;;;3.00;1.00;;;;;;5093419;28;20224;-74
2024/01/20 05:00:57;;;;;;;16.90;6.50;;;3.00;1.00;;;;;;5075566;28;20510;-73
2024/01/20 05:03:23;;;;;;;5.23;4.70;;;3.00;1.00;;;;;;5092640;28;20935;-74
2024/01/20 05:05:48;;;;;;;17.80;6.30;;;2.90;1.00;;;;;;5079862;28;20285;-78
2024/01/20 05:08:14;;;;;;;9.93;6.00;;;2.90;1.00;;;;;;5073234;28;20672;-79
2024/01/20 05:10:40;;;;;;;18.83;4.53;;;2.90;1.00;;;;;;5072958;28;20221;-79
2024/01/20 05:13:05;;;;;;;15.00;5.67;;;2.80;1.00;;;;;;5072374;28;20559;-74
2024/01/20 05:15:31;;;;;;;12.93;5.70;;;2.90;1.00;;;;;;5055502;28;20627;-77
2024/01/20 05:17:58;;;;;;;4.07;3.27;;;2.90;1.00;;;;;;5073179;28;20216;-78
2024/01/20 05:20:24;;;;;;;22.23;6.37;;;2.80;1.00;;;;;;5073250;28;20464;-74
2024/01/20 05:22:49;;;;;;;20.30;6.93;;;2.80;1.00;;;;;;5072426;28;20875;-77
2024/01/20 05:25:15;;;;;;;10.00;4.50;;;2.80;1.00;;;;;;5072021;28;20194;-78
2024/01/20 05:27:41;;;;;;;11.20;5.40;;;2.90;1.00;;;;;;5072723;28;20163;-74
2024/01/20 05:30:07;;;;;;;7.73;5.90;;;2.90;1.00;;;;;;5077207;28;20253;-74
2024/01/20 05:32:33;;;;;;;14.93;5.27;;;2.90;1.00;;;;;;5073214;28;20636;-75
2024/01/20 05:34:59;;;;;;;12.57;6.13;;;2.90;1.00;;;;;;5072018;28;20467;-78
2024/01/20 05:37:25;;;;;;;13.03;6.60;;;2.90;1.00;;;;;;5073023;28;20400;-73
2024/01/20 05:39:51;;;;;;;11.10;5.33;;;2.90;1.00;;;;;;5072990;28;20392;-75
2024/01/20 05:42:17;;;;;;;11.20;6.13;;;2.90;1.00;;;;;;5073665;28;20227;-77
2024/01/20 05:44:43;;;;;;;13.03;6.20;;;2.90;1.00;;;;;;5076164;28;20420;-79
2024/01/20 05:47:09;;;;;;;10.20;5.60;;;2.90;1.00;;;;;;5079627;28;20427;-78
2024/01/20 05:49:35;;;;;;;15.10;8.40;;;2.90;1.00;;;;;;5076950;28;20421;-74
2024/01/20 05:52:01;;;;;;;17.77;6.73;;;2.80;1.00;;;;;;5076925;28;20408;-74
2024/01/20 05:54:26;;;;;;;16.87;6.50;;;2.90;1.00;;;;;;5061186;28;20549;-73
2024/01/20 05:56:52;;;;;;;7.40;4.50;;;2.90;1.00;;;;;;5076761;28;20221;-80
2024/01/20 05:59:18;;;;;;;8.13;5.70;;;2.90;1.00;;;;;;5076626;28;20669;-79
2024/01/20 06:01:50;;;;;;;8.07;5.40;;;2.90;1.00;;;;;;5079329;28;20174;-75
2024/01/20 06:04:17;;;;;;;7.83;5.77;;;2.90;1.00;;;;;;5075711;28;20188;-76
2024/01/20 06:06:46;;;;;;;19.43;7.30;;;2.90;1.00;;;;;;5076604;28;20476;-74
2024/01/20 06:09:12;;;;;;;15.53;6.93;;;2.90;1.00;;;;;;5076425;28;20392;-79
2024/01/20 06:11:37;;;;;;;21.47;6.60;;;2.90;1.00;;;;;;5076509;28;20474;-79
2024/01/20 06:14:03;;;;;;;16.10;6.20;;;2.90;1.00;;;;;;5075544;28;20420;-74
2024/01/20 06:16:29;;;;;;;12.13;7.07;;;2.90;1.00;;;;;;5058500;28;20537;-78
2024/01/20 06:18:55;;;;;;;13.53;6.97;;;2.90;1.00;;;;;;5077309;28;20472;-81
2024/01/20 06:21:21;;;;;;;15.13;7.27;;;2.90;1.00;;;;;;5076126;28;20230;-77
2024/01/20 06:23:51;;;;;;;19.67;8.40;;;3.00;1.00;;;;;;5075433;28;20699;-79
2024/01/20 06:26:17;;;;;;;28.07;7.40;;;3.00;1.00;;;;;;5076232;28;20404;-74
2024/01/20 06:28:43;;;;;;;19.90;5.87;;;3.00;1.00;;;;;;5076182;28;20413;-80
2024/01/20 06:31:09;;;;;;;10.20;7.17;;;3.00;1.00;;;;;;5076149;28;20170;-79
2024/01/20 06:33:35;;;;;;;21.50;6.77;;;3.00;1.00;;;;;;5057242;28;20884;-77
2024/01/20 06:36:01;;;;;;;12.00;7.33;;;3.10;1.00;;;;;;5071852;28;20464;-80
2024/01/20 06:38:28;;;;;;;13.03;6.80;;;3.00;1.00;;;;;;5080802;28;20548;-75
2024/01/20 06:40:54;;;;;;;15.70;6.50;;;3.10;1.00;;;;;;5076063;28;20189;-75
2024/01/20 06:43:20;;;;;;;11.37;5.63;;;3.10;1.00;;;;;;5075030;28;20401;-80
2024/01/20 06:45:46;;;;;;;13.47;7.33;;;3.10;1.00;;;;;;5075796;28;20503;-74
2024/01/20 06:48:12;;;;;;;19.77;7.20;;;3.10;1.00;;;;;;5075851;28;20171;-73
2024/01/20 06:50:43;;;;;;;11.70;6.47;;;3.20;1.00;;;;;;5075851;28;20175;-79
2024/01/20 06:53:11;;;;;;;13.33;5.80;;;3.20;1.00;;;;;;5072348;28;20516;-78
2024/01/20 06:55:38;;;;;;;18.03;7.23;;;3.30;1.00;;;;;;5079825;28;20466;-79
2024/01/20 06:58:03;;;;;;;15.23;7.93;;;3.30;1.00;;;;;;5075581;28;20766;-75
2024/01/20 07:00:29;;;;;;;13.30;7.07;;;3.40;1.00;;;;;;5075749;28;20261;-80
2024/01/20 07:02:55;;;;;;;17.33;7.40;;;3.30;1.00;;;;;;5056958;28;20423;-79
2024/01/20 07:05:21;;;;;;;9.60;6.23;;;3.40;1.00;;;;;;5075342;28;20524;-74
2024/01/20 07:07:46;;;;;;;24.50;8.60;;;3.30;1.00;;;;;;5057749;28;20539;-80
2024/01/20 07:10:14;;;;;;;12.93;7.60;;;3.30;1.00;;;;;;5075456;28;20219;-75
2024/01/20 07:12:40;;;;;;;17.63;7.27;;;3.30;1.00;;;;;;5077993;28;20179;-77
2024/01/20 07:15:06;;;;;;;6.83;5.17;;;3.30;1.00;;;;;;5074620;28;20432;-80
2024/01/20 07:17:32;;;;;;;15.27;8.10;;;3.30;1.00;;;;;;5075206;28;20158;-80
2024/01/20 07:19:58;;;;;;;14.03;7.40;;;3.40;1.00;;;;;;5075201;28;20915;-79
2024/01/20 07:22:24;;;;;;;15.90;7.67;;;3.40;1.00;;;;;;5075337;28;20871;-80
2024/01/20 07:24:49;;;;;;;14.10;9.23;;;3.40;1.00;;;;;;5074220;28;20963;-81
2024/01/20 07:27:15;;;;;;;13.70;7.10;;;3.30;1.00;;;;;;5075163;28;20430;-76
2024/01/20 07:29:41;;;;;;;13.20;8.83;;;3.30;1.00;;;;;;5080439;28;20223;-75
2024/01/20 07:32:07;;;;;;;13.10;6.40;;;3.40;1.00;;;;;;5077249;28;20234;-75
2024/01/20 07:34:33;;;;;;;15.57;7.67;;;3.30;1.00;;;;;;5088259;28;20193;-79
2024/01/20 07:36:59;;;;;;;22.07;8.27;;;3.30;1.00;;;;;;5094996;28;20748;-75
2024/01/20 07:39:24;;;;;;;9.27;6.70;;;3.30;1.00;;;;;;5094818;28;20218;-80
2024/01/20 07:41:50;;;;;;;11.80;7.00;;;3.30;1.00;;;;;;5094899;28;20481;-81
2024/01/20 07:44:16;;;;;;;14.57;7.17;;;3.30;1.00;;;;;;5075732;28;20192;-80
2024/01/20 07:46:41;;;;;;;18.63;5.70;;;3.30;1.00;;;;;;5085074;28;20169;-81
2024/01/20 07:49:07;;;;;;;22.90;8.27;;;3.30;1.00;;;;;;5074426;28;20223;-80
2024/01/20 07:51:33;;;;;;;25.33;9.40;;;3.20;1.00;;;;;;5074391;28;20649;-80
2024/01/20 07:53:59;;;;;;;19.53;9.40;;;3.20;1.00;;;;;;5073368;28;20193;-78
2024/01/20 07:56:24;;;;;;;12.07;8.23;;;3.20;1.00;;;;;;5074405;28;20170;-81
2024/01/20 07:58:50;;;;;;;7.87;7.13;;;3.20;1.00;;;;;;5074171;28;20213;-74
2024/01/20 08:01:17;;;;;;;10.00;7.80;;;3.20;1.00;;;;;;5074212;28;20550;-81
2024/01/20 08:03:43;;;;;;;22.53;10.20;;;3.20;1.00;;;;;;5073016;28;20182;-80
2024/01/20 08:06:09;;;;;;;18.97;10.30;;;3.20;1.00;;;;;;5073795;28;20424;-76
2024/01/20 08:08:35;;;;;;;15.00;10.20;;;3.30;1.00;;;;;;5072619;28;20423;-76
2024/01/20 08:11:00;;;;;;;11.90;8.00;;;3.30;1.00;;;;;;5074114;28;20174;-76
2024/01/20 08:13:26;;;;;;;18.30;10.67;;;3.30;1.00;;;;;;5073083;28;20661;-81
2024/01/20 08:15:52;;;;;;;24.67;11.00;;;3.30;1.00;;;;;;5073867;28;20244;-81
2024/01/20 08:18:17;;;;;;;19.20;10.37;;;3.20;1.00;;;;;;5073527;28;20201;-76
2024/01/20 08:20:43;;;;;;;14.10;10.40;;;3.20;1.00;;;;;;5073796;28;20178;-86
2024/01/20 08:23:09;;;;;;;25.53;11.13;;;3.30;1.00;;;;;;5072812;28;20169;-80
2024/01/20 08:25:34;;;;;;;12.87;10.03;;;3.30;1.00;;;;;;5073602;28;20416;-76
2024/01/20 08:28:00;;;;;;;25.07;11.57;;;3.30;1.00;;;;;;5077531;28;20234;-76
2024/01/20 08:30:26;;;;;;;32.90;13.20;;;3.30;1.00;;;;;;5094053;28;20174;-80
2024/01/20 08:32:52;;;;;;;15.80;10.80;;;3.30;1.00;;;;;;5075218;28;20272;-77
2024/01/20 08:35:17;;;;;;;15.80;10.30;;;3.30;1.00;;;;;;5094088;28;20189;-81
2024/01/20 08:37:43;;;;;;;19.23;10.40;;;3.40;1.00;;;;;;5094015;28;20196;-81
2024/01/20 08:40:09;;;;;;;21.30;11.90;;;3.40;1.00;;;;;;5093947;28;20157;-80
2024/01/20 08:42:34;;;;;;;11.27;10.10;;;3.40;1.00;;;;;;5093822;28;20158;-75
2024/01/20 08:45:00;;;;;;;14.80;10.60;;;3.40;1.00;;;;;;5063100;28;20460;-78
2024/01/20 08:47:26;;;;;;;19.17;11.10;;;3.40;1.00;;;;;;5073580;28;20167;-80
2024/01/20 08:49:52;;;;;;;21.43;12.37;;;3.50;1.00;;;;;;5073580;28;20522;-75
2024/01/20 08:52:18;;;;;;;24.83;11.63;;;3.60;1.00;;;;;;5073462;28;20392;-79
2024/01/20 08:54:44;;;;;;;18.30;10.70;;;3.50;1.00;;;;;;5071677;28;20750;-79
2024/01/20 08:57:10;;;;;;;14.10;12.37;;;3.60;1.00;;;;;;5081352;28;20491;-76
2024/01/20 08:59:35;;;;;;;18.80;12.77;;;3.60;1.00;;;;;;5073366;28;20677;-75
2024/01/20 09:02:01;;;;;;;18.90;12.23;;;3.60;1.00;;;;;;5072154;28;20182;-79
2024/01/20 09:04:27;;;;;;;25.17;12.27;;;3.70;1.00;;;;;;5083207;28;20571;-74
2024/01/20 09:06:52;;;;;;;23.57;12.10;;;3.80;1.00;;;;;;5088165;28;20181;-74
2024/01/20 09:09:18;;;;;;;20.30;12.10;;;3.70;1.00;;;;;;5093236;28;20170;-79
2024/01/20 09:11:44;;;;;;;15.63;12.50;;;3.70;1.00;;;;;;5091359;28;20239;-77
2024/01/20 09:14:10;;;;;;;17.47;11.73;;;3.60;1.00;;;;;;5080748;28;20927;-75
2024/01/20 09:16:35;;;;;;;29.37;13.60;;;3.60;1.00;;;;;;5092889;28;20177;-79
2024/01/20 09:19:01;;;;;;;16.40;10.10;;;3.50;1.00;;;;;;5074428;28;20250;-81
2024/01/20 09:21:27;;;;;;;20.47;11.33;;;3.50;1.00;;;;;;5092987;28;20169;-74
2024/01/20 09:23:52;;;;;;;27.63;11.40;;;3.50;1.00;;;;;;5092157;28;20161;-80
2024/01/20 09:26:18;;;;;;;20.73;11.33;;;3.50;1.00;;;;;;5093124;28;20169;-80
2024/01/20 09:28:44;;;;;;;16.97;11.80;;;3.50;1.00;;;;;;5093152;28;20743;-74
2024/01/20 09:31:10;;;;;;;21.80;12.80;;;3.50;1.00;;;;;;5086642;28;20170;-76
2024/01/20 09:33:35;;;;;;;35.33;13.10;;;3.60;1.00;;;;;;5072359;28;20500;-80
2024/01/20 09:36:02;;;;;;;19.40;11.53;;;3.60;1.00;;;;;;5055049;28;20577;-79
2024/01/20 09:38:29;;;;;;;27.40;13.30;;;3.60;1.00;;;;;;5073038;28;20213;-79
2024/01/20 09:40:58;;;;;;;16.67;11.83;;;3.60;1.00;;;;;;5072898;28;20396;-75
2024/01/20 09:43:25;;;;;;;18.40;9.60;;;3.60;1.00;;;;;;5072049;28;20397;-80
2024/01/20 09:45:52;;;;;;;21.07;12.03;;;3.70;1.00;;;;;;5072928;28;20413;-80
2024/01/20 09:48:18;;;;;;;21.87;11.07;;;3.70;1.00;;;;;;5073799;28;20433;-78
2024/01/20 09:50:44;;;;;;;17.00;11.57;;;3.70;1.00;;;;;;5072990;28;20393;-75
2024/01/20 09:53:15;;;;;;;22.23;10.97;;;3.70;1.00;;;;;;5054318;28;20416;-76
2024/01/20 09:55:42;;;;;;;16.07;11.10;;;3.70;1.00;;;;;;5072959;28;20453;-79
2024/01/20 09:58:15;;;;;;;13.73;9.07;;;3.70;1.00;;;;;;5072751;28;20448;-74
2024/01/20 10:00:42;;;;;;;20.57;11.57;;;3.70;1.00;;;;;;5074820;28;20438;-80
2024/01/20 10:03:09;;;;;;;22.43;13.03;;;3.60;1.00;;;;;;5080553;28;20532;-81
2024/01/20 10:05:35;;;;;;;21.97;12.00;;;3.60;1.00;;;;;;5092618;28;20447;-81
2024/01/20 10:08:02;;;;;;;17.33;10.80;;;3.60;1.00;;;;;;5086989;28;20416;-81
2024/01/20 10:10:32;;;;;;;14.37;11.40;;;3.60;1.00;;;;;;5092716;28;20172;-80
2024/01/20 10:13:00;;;;;;;19.93;12.93;;;3.70;1.00;;;;;;5091736;28;20422;-75
2024/01/20 10:15:28;;;;;;;26.63;14.40;;;3.60;1.00;;;;;;5092657;28;20962;-81
2024/01/20 10:17:57;;;;;;;16.20;12.00;;;3.70;1.00;;;;;;5092632;28;20440;-82
2024/01/20 10:20:25;;;;;;;15.50;11.07;;;3.60;1.00;;;;;;5056777;28;20427;-75
2024/01/20 10:22:51;;;;;;;17.80;12.00;;;3.50;1.00;;;;;;5071551;28;20405;-75
2024/01/20 10:25:20;;;;;;;18.50;13.53;;;3.40;1.00;;;;;;5072370;28;20423;-80
2024/01/20 10:27:48;;;;;;;21.23;13.83;;;3.50;1.00;;;;;;5072652;28;20400;-74
2024/01/20 10:30:24;;;;;;;26.50;14.77;;;3.50;1.00;;;;;;5074398;28;20408;-79
2024/01/20 10:32:51;;;;;;;20.23;12.57;;;3.50;1.00;;;;;;5075244;28;20408;-79
2024/01/20 10:35:17;;;;;;;17.03;13.63;;;3.40;1.00;;;;;;5058306;28;20436;-80
2024/01/20 10:37:44;;;;;;;24.40;14.80;;;3.40;1.00;;;;;;5077410;28;20456;-75
2024/01/20 10:40:14;;;;;;;23.67;13.77;;;3.50;99.90;;;;;;5076660;28;20648;-75
2024/01/20 10:42:45;;;;;;;18.63;12.40;;;3.40;99.90;;;;;;5057970;28;20851;-79
2024/01/20 10:45:16;;;;;;;22.20;12.33;;;3.50;99.90;;;;;;5074982;28;20420;-76
2024/01/20 10:47:57;;;;;;;20.27;13.20;;;3.40;99.90;;;;;;5075779;28;20760;-75
2024/01/20 10:50:27;;;;;;;25.47;13.97;;;3.40;99.90;;;;;;5075795;28;20454;-75
2024/01/20 10:52:53;;;;;;;25.13;14.20;;;3.40;99.90;;;;;;5056879;28;20935;-75
2024/01/20 10:55:19;;;;;;;24.13;13.90;;;3.50;99.90;;;;;;5078333;28;20444;-76
2024/01/20 10:57:49;;;;;;;18.23;9.87;;;3.50;99.90;;;;;;5075616;28;20853;-82
2024/01/20 11:00:16;;;;;;;26.70;13.47;;;3.40;99.90;;;;;;5075765;28;20431;-75
2024/01/20 11:02:42;;;;;;;35.10;13.97;;;3.50;99.90;;;;;;5057451;28;20413;-79
2024/01/20 11:05:37;;;;;;;21.60;12.10;;;3.50;99.90;;;;;;5074697;28;20467;-80
2024/01/20 11:08:04;;;;;;;19.50;12.37;;;3.60;99.90;;;;;;5062560;28;20425;-80
2024/01/20 11:10:37;;;;;;;21.43;13.27;;;3.60;99.90;;;;;;5077696;28;20427;-75
2024/01/20 11:13:07;;;;;;;21.10;14.00;;;3.70;99.90;;;;;;5057796;28;20424;-80
2024/01/20 11:15:33;;;;;;;19.23;11.10;;;3.80;99.90;;;;;;5057504;28;20436;-81
2024/01/20 11:18:02;;;;;;;20.63;13.33;;;3.80;99.90;;;;;;5075229;28;20452;-75
2024/01/20 11:20:31;;;;;;;19.23;11.73;;;3.80;99.90;;;;;;5075273;28;20398;-75
2024/01/20 11:22:57;;;;;;;18.40;11.30;;;3.90;99.90;;;;;;5074351;28;20389;-75
2024/01/20 11:25:24;;;;;;;20.50;12.20;;;3.90;99.90;;;;;;5075152;28;20750;-75
2024/01/20 11:27:57;;;;;;;22.60;12.43;;;3.90;99.90;;;;;;5077896;28;20194;-80
2024/01/20 11:30:34;;;;;;;21.30;11.97;;;3.90;99.90;;;;;;5075072;28;20435;-81
2024/01/20 11:33:01;;;;;;;23.77;13.17;;;3.80;99.90;;;;;;5074092;28;20402;-75
2024/01/20 11:35:27;;;;;;;19.20;12.30;;;3.90;99.90;;;;;;5075008;28;20420;-75
2024/01/20 11:37:59;;;;;;;19.27;11.43;;;3.90;99.90;;;;;;5057060;28;20444;-80
2024/01/20 11:40:25;;;;;;;21.90;12.00;;;3.80;99.90;;;;;;5074486;28;20735;-75
2024/01/20 11:42:50;;;;;;;28.97;12.00;;;3.90;99.90;;;;;;5074015;28;20408;-80
2024/01/20 11:45:16;;;;;;;26.03;13.20;;;3.90;99.90;;;;;;5079597;28;20451;-80
2024/01/20 11:47:42;;;;;;;27.67;13.10;;;3.90;99.90;;;;;;5076450;28;20639;-75
2024/01/20 11:50:09;;;;;;;28.83;13.63;;;3.90;99.90;;;;;;5074669;28;20397;-76
2024/01/20 11:52:35;;;;;;;18.70;11.80;;;3.90;99.90;;;;;;5074581;28;20891;-75
2024/01/20 11:55:01;;;;;;;14.50;10.17;;;4.00;99.90;;;;;;5073626;28;20420;-80
2024/01/20 11:57:31;;;;;;;17.33;9.33;;;4.00;99.90;;;;;;5074537;28;20400;-81
2024/01/20 11:59:58;;;;;;;19.97;12.60;;;4.00;99.90;;;;;;5074462;28;20483;-79
2024/01/20 12:02:24;;;;;;;26.90;11.87;;;4.00;99.90;;;;;;5055819;28;20477;-79
2024/01/20 12:04:50;;;;;;;17.00;11.80;;;4.00;99.90;;;;;;5076040;28;20982;-80
2024/01/20 12:07:19;;;;;;;21.30;10.73;;;4.10;99.90;;;;;;5076576;28;20433;-75
2024/01/20 12:09:46;;;;;;;34.57;13.93;;;4.10;99.90;;;;;;5079602;28;20466;-81
2024/01/20 12:12:13;;;;;;;21.17;11.60;;;4.20;99.90;;;;;;5062612;28;20432;-76
2024/01/20 12:14:43;;;;;;;25.63;12.47;;;4.10;99.90;;;;;;5077786;28;20437;-75
2024/01/20 12:17:10;;;;;;;25.00;12.50;;;4.20;99.90;;;;;;5074168;28;20899;-75
2024/01/20 12:19:39;;;;;;;20.03;10.77;;;4.10;99.90;;;;;;5074056;28;20452;-76
2024/01/20 12:22:10;;;;;;;21.27;12.10;;;4.10;99.90;;;;;;5073877;28;20446;-80
2024/01/20 12:24:37;;;;;;;20.53;11.00;;;4.10;99.90;;;;;;5073033;28;20504;-81
2024/01/20 12:27:04;;;;;;;19.33;11.43;;;4.20;99.90;;;;;;5073969;28;20401;-75
2024/01/20 12:29:30;;;;;;;35.13;11.40;;;4.20;99.90;;;;;;5072188;28;20771;-80
2024/01/20 12:31:57;;;;;;;21.87;12.10;;;4.30;99.90;;;;;;5072042;28;20451;-82
2024/01/20 12:34:27;;;;;;;17.77;12.00;;;4.30;99.90;;;;;;5072773;28;20426;-75
2024/01/20 12:36:56;;;;;;;17.57;10.53;;;4.40;99.90;;;;;;5073793;28;20414;-75
2024/01/20 12:39:25;;;;;;;28.80;12.23;;;4.30;99.90;;;;;;5073723;28;20531;-75
2024/01/20 12:41:53;;;;;;;15.43;10.13;;;4.40;99.90;;;;;;5073782;28;20758;-75
2024/01/20 12:44:19;;;;;;;18.90;9.60;;;4.30;99.90;;;;;;5072515;28;20894;-75
2024/01/20 12:46:45;;;;;;;24.70;10.10;;;4.40;99.90;;;;;;5075476;28;20515;-79
2024/01/20 12:49:10;;;;;;;19.63;9.53;;;4.50;99.90;;;;;;5077751;28;20427;-80